createdAt,value
2017-08-06T00:00:25.289Z,3.40
2017-08-06T00:01:22.560Z,3.60
2017-08-06T00:02:19.800Z,3.60
2017-08-06T00:03:17.080Z,4.20
2017-08-06T00:04:14.310Z,3.70
2017-08-06T00:05:11.577Z,3.70
2017-08-06T00:06:08.801Z,3.20
2017-08-06T00:07:06.061Z,3.30
2017-08-06T00:08:03.284Z,3.60
2017-08-06T00:09:00.583Z,3.30
2017-08-06T00:09:57.855Z,4.10
2017-08-06T00:10:55.112Z,3.80
2017-08-06T00:11:52.350Z,3.60
2017-08-06T00:12:49.616Z,3.80
2017-08-06T00:13:46.876Z,4.20
2017-08-06T00:14:44.121Z,3.50
2017-08-06T00:15:41.359Z,3.70
2017-08-06T00:16:38.728Z,3.20
2017-08-06T00:17:35.970Z,3.40
2017-08-06T00:18:33.248Z,3.50
2017-08-06T00:19:30.504Z,3.10
2017-08-06T00:20:27.761Z,3.40
2017-08-06T00:21:24.996Z,2.90
2017-08-06T00:22:22.289Z,3.40
2017-08-06T00:23:19.531Z,3.30
2017-08-06T00:24:16.884Z,3.20
2017-08-06T00:25:14.125Z,3.20
2017-08-06T00:26:11.383Z,3.90
2017-08-06T00:27:08.632Z,3.50
2017-08-06T00:28:05.897Z,3.00
2017-08-06T00:29:03.140Z,3.10
2017-08-06T00:30:00.409Z,3.10
2017-08-06T00:30:57.653Z,3.30
2017-08-06T00:31:54.924Z,3.30
2017-08-06T00:32:52.156Z,3.00
2017-08-06T00:33:49.400Z,3.40
2017-08-06T00:34:46.649Z,2.90
2017-08-06T00:35:43.900Z,3.40
2017-08-06T00:36:41.135Z,3.50
2017-08-06T00:37:38.397Z,3.30
2017-08-06T00:38:35.637Z,2.90
2017-08-06T00:39:32.911Z,3.20
2017-08-06T00:40:30.133Z,3.40
2017-08-06T00:41:27.411Z,3.00
2017-08-06T00:42:24.656Z,3.10
2017-08-06T00:43:21.928Z,3.00
2017-08-06T00:44:19.181Z,3.10
2017-08-06T00:45:16.431Z,4.00
2017-08-06T00:46:13.672Z,3.10
2017-08-06T00:47:10.931Z,3.10
2017-08-06T00:48:08.181Z,3.60
2017-08-06T00:49:05.445Z,2.80
2017-08-06T00:50:02.692Z,3.10
2017-08-06T00:50:59.943Z,3.40
2017-08-06T00:51:57.177Z,4.00
2017-08-06T00:52:54.438Z,4.00
2017-08-06T00:53:51.673Z,3.50
2017-08-06T00:54:48.956Z,3.10
2017-08-06T00:55:46.185Z,3.20
2017-08-06T00:56:43.447Z,3.40
2017-08-06T00:57:40.656Z,3.30
2017-08-06T00:58:37.944Z,3.10
2017-08-06T00:59:35.205Z,3.00
2017-08-06T01:00:32.472Z,3.20
2017-08-06T01:01:29.731Z,3.20
2017-08-06T01:02:27.025Z,2.60
2017-08-06T01:03:24.268Z,3.50
2017-08-06T01:04:21.525Z,2.70
2017-08-06T01:05:18.784Z,3.30
2017-08-06T01:06:16.032Z,2.80
2017-08-06T01:07:13.269Z,3.20
2017-08-06T01:08:10.513Z,3.10
2017-08-06T01:09:07.752Z,3.00
2017-08-06T01:10:05.016Z,2.90
2017-08-06T01:11:02.244Z,2.90
2017-08-06T01:11:59.496Z,2.80
2017-08-06T01:12:56.716Z,3.20
2017-08-06T01:13:53.981Z,3.40
2017-08-06T01:14:51.228Z,2.70
2017-08-06T01:15:48.528Z,3.30
2017-08-06T01:16:45.765Z,3.10
2017-08-06T01:17:43.008Z,3.20
2017-08-06T01:18:40.252Z,3.10
2017-08-06T01:19:37.506Z,2.80
2017-08-06T01:20:34.757Z,3.30
2017-08-06T01:21:32.016Z,2.90
2017-08-06T01:22:29.236Z,3.30
2017-08-06T01:23:26.480Z,3.20
2017-08-06T01:24:23.699Z,3.80
2017-08-06T01:25:20.980Z,3.40
2017-08-06T01:26:18.204Z,3.60
2017-08-06T01:27:15.445Z,3.30
2017-08-06T01:28:12.669Z,2.90
2017-08-06T01:29:09.936Z,2.70
2017-08-06T01:30:07.159Z,3.60
2017-08-06T01:31:04.445Z,3.00
2017-08-06T01:32:01.741Z,3.40
2017-08-06T01:32:59.149Z,2.70
2017-08-06T01:33:56.376Z,3.00
2017-08-06T01:34:53.729Z,3.30
2017-08-06T01:35:51.076Z,3.40
2017-08-06T01:36:48.335Z,3.10
2017-08-06T01:37:45.552Z,3.00
2017-08-06T01:38:42.932Z,3.50
2017-08-06T01:39:40.500Z,2.70
2017-08-06T01:40:37.775Z,4.00
2017-08-06T01:41:34.989Z,3.40
2017-08-06T01:42:32.248Z,3.30
2017-08-06T01:43:29.477Z,3.30
2017-08-06T01:44:26.740Z,3.00
2017-08-06T01:45:23.987Z,3.50
2017-08-06T01:46:21.256Z,2.60
2017-08-06T01:47:18.477Z,3.20
2017-08-06T01:48:15.721Z,3.60
2017-08-06T01:49:12.944Z,3.20
2017-08-06T01:50:10.196Z,3.40
2017-08-06T01:51:07.433Z,4.10
2017-08-06T01:52:04.678Z,3.50
2017-08-06T01:53:01.903Z,3.10
2017-08-06T01:53:59.168Z,3.10
2017-08-06T01:54:56.425Z,3.10
2017-08-06T01:55:53.701Z,2.90
2017-08-06T01:56:50.929Z,2.90
2017-08-06T01:57:48.174Z,3.00
2017-08-06T01:58:45.401Z,3.20
2017-08-06T01:59:42.644Z,2.90
2017-08-06T02:00:39.887Z,3.00
2017-08-06T02:01:37.144Z,3.20
2017-08-06T02:02:34.359Z,2.80
2017-08-06T02:03:31.625Z,2.80
2017-08-06T02:04:28.852Z,3.20
2017-08-06T02:05:26.112Z,3.00
2017-08-06T02:06:23.381Z,3.20
2017-08-06T02:07:20.644Z,2.80
2017-08-06T02:08:17.868Z,2.90
2017-08-06T02:09:15.134Z,3.40
2017-08-06T02:10:12.368Z,3.00
2017-08-06T02:11:09.629Z,3.60
2017-08-06T02:12:06.852Z,3.10
2017-08-06T02:13:04.114Z,2.90
2017-08-06T02:14:01.357Z,3.60
2017-08-06T02:14:58.608Z,3.90
2017-08-06T02:15:55.833Z,3.00
2017-08-06T02:16:53.111Z,3.30
2017-08-06T02:17:50.351Z,2.70
2017-08-06T02:18:47.604Z,3.20
2017-08-06T02:19:44.837Z,2.90
2017-08-06T02:20:42.191Z,3.00
2017-08-06T02:21:39.424Z,2.90
2017-08-06T02:22:37.069Z,3.60
2017-08-06T02:23:34.296Z,2.70
2017-08-06T02:24:31.540Z,3.00
2017-08-06T02:25:28.773Z,2.90
2017-08-06T02:26:26.032Z,3.00
2017-08-06T02:27:23.288Z,3.10
2017-08-06T02:28:20.577Z,3.40
2017-08-06T02:29:17.826Z,3.20
2017-08-06T02:30:15.090Z,2.80
2017-08-06T02:31:12.432Z,2.70
2017-08-06T02:32:09.706Z,2.90
2017-08-06T02:33:06.929Z,3.10
2017-08-06T02:34:04.189Z,2.90
2017-08-06T02:35:01.472Z,3.20
2017-08-06T02:35:58.738Z,3.10
2017-08-06T02:36:55.993Z,3.20
2017-08-06T02:37:53.250Z,3.10
2017-08-06T02:38:50.488Z,3.00
2017-08-06T02:39:47.736Z,3.10
2017-08-06T02:40:44.972Z,3.20
2017-08-06T02:41:42.220Z,3.00
2017-08-06T02:42:39.461Z,2.90
2017-08-06T02:43:36.705Z,3.20
2017-08-06T02:44:33.929Z,3.40
2017-08-06T02:45:31.193Z,3.00
2017-08-06T02:46:28.427Z,2.70
2017-08-06T02:47:25.695Z,2.80
2017-08-06T02:48:22.932Z,3.40
2017-08-06T02:49:20.183Z,3.20
2017-08-06T02:50:17.417Z,3.50
2017-08-06T02:51:14.672Z,3.40
2017-08-06T02:52:11.929Z,3.40
2017-08-06T02:53:09.177Z,3.20
2017-08-06T02:54:06.396Z,3.50
2017-08-06T02:55:03.657Z,2.80
2017-08-06T02:56:00.917Z,3.20
2017-08-06T02:56:58.188Z,2.80
2017-08-06T02:57:55.438Z,3.20
2017-08-06T02:58:52.988Z,3.40
2017-08-06T02:59:50.220Z,3.50
2017-08-06T03:00:47.484Z,2.80
2017-08-06T03:01:44.716Z,3.30
2017-08-06T03:02:41.992Z,3.00
2017-08-06T03:03:39.208Z,3.20
2017-08-06T03:04:36.473Z,3.10
2017-08-06T03:05:33.696Z,3.20
2017-08-06T03:06:30.957Z,2.90
2017-08-06T03:07:28.191Z,3.00
2017-08-06T03:08:25.464Z,3.20
2017-08-06T03:09:22.695Z,3.10
2017-08-06T03:10:19.976Z,3.20
2017-08-06T03:11:17.200Z,3.40
2017-08-06T03:12:14.468Z,3.00
2017-08-06T03:13:11.720Z,3.30
2017-08-06T03:14:08.976Z,2.80
2017-08-06T03:15:06.212Z,3.00
2017-08-06T03:16:03.468Z,3.00
2017-08-06T03:17:00.704Z,3.10
2017-08-06T03:17:57.992Z,3.00
2017-08-06T03:18:55.229Z,3.00
2017-08-06T03:19:52.492Z,4.10
2017-08-06T03:20:49.720Z,3.40
2017-08-06T03:21:46.981Z,2.80
2017-08-06T03:22:44.240Z,3.00
2017-08-06T03:23:41.516Z,3.50
2017-08-06T03:24:38.745Z,3.80
2017-08-06T03:25:36.050Z,2.80
2017-08-06T03:26:33.334Z,3.30
2017-08-06T03:27:30.593Z,3.30
2017-08-06T03:28:27.841Z,2.60
2017-08-06T03:29:25.100Z,3.50
2017-08-06T03:30:22.348Z,3.20
2017-08-06T03:31:19.634Z,3.20
2017-08-06T03:32:16.880Z,3.00
2017-08-06T03:33:14.158Z,3.10
2017-08-06T03:34:11.389Z,3.50
2017-08-06T03:35:08.657Z,3.80
2017-08-06T03:36:05.893Z,3.10
2017-08-06T03:37:03.168Z,3.80
2017-08-06T03:38:00.396Z,3.70
2017-08-06T03:38:57.671Z,3.80
2017-08-06T03:39:54.903Z,3.30
2017-08-06T03:40:52.156Z,3.30
2017-08-06T03:41:49.400Z,4.50
2017-08-06T03:42:46.656Z,4.00
2017-08-06T03:43:43.900Z,4.40
2017-08-06T03:44:41.172Z,4.10
2017-08-06T03:45:38.404Z,3.70
2017-08-06T03:46:35.676Z,3.20
2017-08-06T03:47:32.908Z,3.90
2017-08-06T03:48:30.172Z,3.70
2017-08-06T03:49:27.429Z,3.80
2017-08-06T03:50:24.696Z,3.90
2017-08-06T03:51:21.940Z,3.20
2017-08-06T03:52:19.210Z,4.20
2017-08-06T03:53:16.448Z,3.70
2017-08-06T03:54:13.720Z,3.70
2017-08-06T03:55:10.940Z,3.70
2017-08-06T03:56:08.192Z,4.20
2017-08-06T03:57:05.421Z,4.20
2017-08-06T03:58:02.679Z,3.60
2017-08-06T03:58:59.929Z,3.10
2017-08-06T03:59:57.201Z,3.20
2017-08-06T04:00:54.468Z,3.20
2017-08-06T04:01:51.717Z,3.10
2017-08-06T04:02:48.942Z,3.40
2017-08-06T04:03:46.566Z,3.40
2017-08-06T04:04:43.842Z,3.50
2017-08-06T04:05:41.100Z,3.10
2017-08-06T04:06:38.344Z,3.30
2017-08-06T04:07:35.604Z,3.50
2017-08-06T04:08:32.853Z,3.50
2017-08-06T04:09:30.130Z,3.00
2017-08-06T04:10:27.360Z,3.30
2017-08-06T04:11:24.888Z,3.20
2017-08-06T04:12:22.137Z,3.20
2017-08-06T04:13:19.391Z,3.60
2017-08-06T04:14:16.668Z,3.20
2017-08-06T04:15:13.937Z,2.90
2017-08-06T04:16:11.196Z,3.00
2017-08-06T04:17:08.464Z,3.00
2017-08-06T04:18:05.685Z,3.10
2017-08-06T04:19:02.948Z,3.30
2017-08-06T04:20:00.196Z,3.10
2017-08-06T04:20:57.460Z,3.30
2017-08-06T04:21:54.719Z,3.00
2017-08-06T04:22:51.976Z,3.40
2017-08-06T04:23:49.248Z,3.80
2017-08-06T04:24:46.534Z,3.10
2017-08-06T04:25:43.774Z,3.50
2017-08-06T04:26:41.085Z,3.40
2017-08-06T04:27:38.368Z,3.50
2017-08-06T04:28:35.633Z,3.00
2017-08-06T04:29:33.616Z,3.50
2017-08-06T04:30:30.887Z,3.50
2017-08-06T04:31:28.119Z,3.40
2017-08-06T04:32:25.380Z,3.30
2017-08-06T04:33:22.620Z,3.20
2017-08-06T04:34:19.879Z,4.00
2017-08-06T04:35:17.137Z,3.50
2017-08-06T04:36:14.389Z,3.60
2017-08-06T04:37:11.635Z,3.60
2017-08-06T04:38:08.901Z,3.40
2017-08-06T04:39:06.135Z,3.80
2017-08-06T04:40:03.696Z,3.40
2017-08-06T04:41:00.924Z,3.50
2017-08-06T04:41:58.188Z,3.30
2017-08-06T04:42:55.427Z,3.80
2017-08-06T04:43:52.692Z,3.20
2017-08-06T04:44:49.938Z,3.20
2017-08-06T04:45:47.233Z,3.60
2017-08-06T04:46:44.461Z,3.70
2017-08-06T04:47:41.724Z,3.10
2017-08-06T04:48:38.979Z,3.70
2017-08-06T04:49:36.249Z,3.30
2017-08-06T04:50:33.500Z,3.50
2017-08-06T04:51:30.761Z,3.60
2017-08-06T04:52:28.000Z,3.80
2017-08-06T04:53:25.260Z,3.80
2017-08-06T04:54:22.511Z,3.60
2017-08-06T04:55:19.789Z,3.50
2017-08-06T04:56:17.036Z,3.70
2017-08-06T04:57:14.298Z,3.60
2017-08-06T04:58:11.548Z,3.80
2017-08-06T04:59:08.807Z,4.40
2017-08-06T05:00:06.028Z,3.80
2017-08-06T05:01:03.333Z,4.50
2017-08-06T05:02:00.580Z,4.50
2017-08-06T05:02:57.845Z,4.40
2017-08-06T05:03:55.076Z,4.50
2017-08-06T05:04:52.327Z,4.00
2017-08-06T05:05:49.588Z,4.30
2017-08-06T05:06:46.841Z,4.10
2017-08-06T05:07:44.093Z,3.80
2017-08-06T05:08:41.353Z,3.50
2017-08-06T05:09:38.595Z,4.10
2017-08-06T05:10:35.852Z,3.70
2017-08-06T05:11:33.095Z,3.90
2017-08-06T05:12:30.352Z,3.70
2017-08-06T05:13:27.598Z,3.70
2017-08-06T05:14:24.910Z,3.70
2017-08-06T05:15:22.155Z,4.50
2017-08-06T05:16:19.434Z,4.10
2017-08-06T05:17:16.668Z,3.90
2017-08-06T05:18:13.933Z,3.70
2017-08-06T05:19:11.174Z,4.10
2017-08-06T05:20:08.416Z,3.80
2017-08-06T05:21:05.665Z,3.90
2017-08-06T05:22:02.921Z,4.10
2017-08-06T05:23:00.161Z,4.00
2017-08-06T05:23:57.420Z,4.10
2017-08-06T05:24:54.648Z,4.30
2017-08-06T05:25:51.919Z,3.30
2017-08-06T05:26:49.189Z,4.40
2017-08-06T05:27:46.433Z,4.10
2017-08-06T05:28:43.668Z,4.60
2017-08-06T05:29:40.925Z,4.40
2017-08-06T05:30:38.147Z,3.70
2017-08-06T05:31:35.448Z,4.10
2017-08-06T05:32:32.958Z,4.10
2017-08-06T05:33:30.410Z,4.50
2017-08-06T05:34:27.656Z,4.00
2017-08-06T05:35:24.917Z,3.60
2017-08-06T05:36:22.332Z,4.20
2017-08-06T05:37:19.595Z,4.10
2017-08-06T05:38:16.935Z,4.70
2017-08-06T05:39:14.474Z,4.20
2017-08-06T05:40:12.108Z,4.00
2017-08-06T05:41:09.490Z,4.70
2017-08-06T05:42:06.865Z,4.10
2017-08-06T05:43:04.268Z,3.90
2017-08-06T05:44:01.519Z,4.40
2017-08-06T05:44:58.916Z,4.00
2017-08-06T05:45:56.160Z,4.40
2017-08-06T05:46:53.513Z,3.70
2017-08-06T05:47:50.887Z,4.60
2017-08-06T05:48:48.149Z,3.90
2017-08-06T05:49:45.401Z,4.40
2017-08-06T05:50:42.671Z,4.10
2017-08-06T05:51:39.951Z,4.40
2017-08-06T05:52:37.283Z,4.30
2017-08-06T05:53:34.571Z,4.00
2017-08-06T05:54:31.861Z,4.30
2017-08-06T05:55:29.106Z,4.30
2017-08-06T05:56:26.515Z,4.10
2017-08-06T05:57:23.844Z,4.10
2017-08-06T05:58:21.124Z,4.10
2017-08-06T05:59:18.377Z,4.30
2017-08-06T06:00:15.684Z,4.40
2017-08-06T06:01:12.924Z,4.80
2017-08-06T06:02:10.209Z,4.90
2017-08-06T06:03:07.456Z,4.30
2017-08-06T06:04:05.008Z,3.80
2017-08-06T06:05:02.346Z,4.10
2017-08-06T06:05:59.824Z,4.80
2017-08-06T06:06:57.289Z,5.00
2017-08-06T06:07:54.572Z,4.40
2017-08-06T06:08:51.820Z,4.10
2017-08-06T06:09:49.073Z,4.40
2017-08-06T06:10:46.402Z,4.30
2017-08-06T06:11:43.767Z,4.00
2017-08-06T06:12:41.201Z,3.80
2017-08-06T06:13:38.868Z,5.40
2017-08-06T06:14:36.264Z,4.70
2017-08-06T06:15:33.747Z,4.70
2017-08-06T06:16:31.138Z,4.00
2017-08-06T06:17:28.927Z,4.90
2017-08-06T06:18:26.401Z,4.80
2017-08-06T06:19:23.950Z,4.30
2017-08-06T06:20:21.322Z,4.40
2017-08-06T06:21:18.641Z,5.10
2017-08-06T06:22:16.143Z,5.20
2017-08-06T06:23:13.545Z,5.40
2017-08-06T06:24:10.798Z,5.50
2017-08-06T06:25:08.100Z,5.70
2017-08-06T06:26:05.387Z,5.20
2017-08-06T06:27:02.684Z,5.00
2017-08-06T06:27:59.936Z,5.30
2017-08-06T06:28:57.192Z,4.80
2017-08-06T06:29:54.428Z,5.30
2017-08-06T06:30:51.692Z,5.30
2017-08-06T06:31:48.926Z,5.10
2017-08-06T06:32:46.221Z,5.20
2017-08-06T06:33:43.533Z,5.60
2017-08-06T06:34:40.808Z,5.40
2017-08-06T06:35:38.040Z,6.20
2017-08-06T06:36:35.309Z,6.20
2017-08-06T06:37:32.554Z,6.50
2017-08-06T06:38:29.840Z,7.00
2017-08-06T06:39:27.064Z,6.40
2017-08-06T06:40:24.325Z,6.40
2017-08-06T06:41:21.564Z,6.60
2017-08-06T06:42:18.832Z,5.90
2017-08-06T06:43:17.059Z,6.00
2017-08-06T06:44:14.326Z,7.00
2017-08-06T06:45:11.552Z,6.30
2017-08-06T06:46:08.828Z,6.80
2017-08-06T06:47:06.056Z,6.30
2017-08-06T06:48:03.324Z,6.70
2017-08-06T06:49:00.578Z,6.10
2017-08-06T06:49:57.824Z,5.90
2017-08-06T06:50:55.076Z,5.70
2017-08-06T06:51:52.329Z,6.40
2017-08-06T06:52:49.576Z,6.60
2017-08-06T06:53:47.897Z,5.90
2017-08-06T06:54:45.136Z,6.40
2017-08-06T06:55:42.404Z,5.70
2017-08-06T06:56:39.653Z,5.50
2017-08-06T06:57:36.952Z,6.50
2017-08-06T06:58:34.243Z,6.10
2017-08-06T06:59:31.513Z,6.70
2017-08-06T07:00:28.767Z,5.80
2017-08-06T07:01:26.031Z,6.10
2017-08-06T07:02:23.267Z,6.80
2017-08-06T07:03:20.549Z,7.50
2017-08-06T07:04:17.804Z,7.40
2017-08-06T07:05:15.356Z,7.40
2017-08-06T07:06:12.772Z,7.80
2017-08-06T07:07:10.032Z,8.60
2017-08-06T07:08:07.284Z,8.60
2017-08-06T07:09:04.580Z,7.80
2017-08-06T07:10:01.821Z,7.00
2017-08-06T07:10:59.068Z,7.70
2017-08-06T07:11:56.309Z,7.80
2017-08-06T07:12:53.568Z,7.80
2017-08-06T07:13:50.837Z,9.40
2017-08-06T07:14:48.128Z,8.90
2017-08-06T07:15:45.365Z,8.00
2017-08-06T07:16:42.611Z,7.40
2017-08-06T07:17:39.844Z,8.40
2017-08-06T07:18:37.111Z,7.70
2017-08-06T07:19:34.356Z,9.20
2017-08-06T07:20:31.617Z,7.90
2017-08-06T07:21:28.856Z,7.60
2017-08-06T07:22:26.113Z,7.10
2017-08-06T07:23:23.366Z,7.60
2017-08-06T07:24:20.637Z,7.50
2017-08-06T07:25:17.877Z,8.10
2017-08-06T07:26:15.207Z,8.20
2017-08-06T07:27:12.480Z,7.50
2017-08-06T07:28:09.738Z,8.00
2017-08-06T07:29:06.968Z,8.70
2017-08-06T07:30:04.256Z,9.20
2017-08-06T07:31:01.492Z,8.20
2017-08-06T07:31:58.745Z,9.00
2017-08-06T07:32:55.977Z,8.40
2017-08-06T07:33:53.238Z,8.10
2017-08-06T07:34:50.494Z,8.10
2017-08-06T07:35:47.756Z,9.50
2017-08-06T07:36:44.985Z,7.50
2017-08-06T07:37:42.251Z,7.80
2017-08-06T07:38:39.481Z,8.20
2017-08-06T07:39:36.761Z,6.90
2017-08-06T07:40:34.004Z,8.30
2017-08-06T07:41:31.264Z,7.50
2017-08-06T07:42:28.497Z,7.60
2017-08-06T07:43:25.768Z,7.20
2017-08-06T07:44:23.601Z,8.70
2017-08-06T07:45:20.880Z,8.60
2017-08-06T07:46:18.104Z,8.10
2017-08-06T07:47:15.413Z,7.50
2017-08-06T07:48:17.773Z,7.70
2017-08-06T07:49:15.101Z,8.40
2017-08-06T07:50:12.361Z,7.40
2017-08-06T07:51:09.616Z,7.70
2017-08-06T07:52:06.857Z,8.00
2017-08-06T07:53:06.147Z,7.20
2017-08-06T07:54:04.409Z,8.40
2017-08-06T07:55:01.656Z,7.80
2017-08-06T07:55:58.932Z,9.00
2017-08-06T07:56:56.185Z,8.70
2017-08-06T07:57:53.455Z,8.00
2017-08-06T07:58:50.745Z,7.50
2017-08-06T07:59:48.017Z,8.10
2017-08-06T08:00:45.288Z,8.00
2017-08-06T08:01:42.573Z,7.70
2017-08-06T08:02:39.835Z,7.70
2017-08-06T08:03:37.109Z,6.50
2017-08-06T08:04:34.337Z,7.70
2017-08-06T08:05:31.759Z,8.00
2017-08-06T08:06:29.004Z,6.70
2017-08-06T08:07:26.276Z,6.60
2017-08-06T08:08:23.500Z,7.10
2017-08-06T08:09:21.000Z,7.30
2017-08-06T08:10:18.264Z,6.80
2017-08-06T08:11:15.532Z,7.20
2017-08-06T08:12:12.764Z,6.70
2017-08-06T08:13:10.016Z,7.80
2017-08-06T08:14:07.253Z,7.60
2017-08-06T08:15:04.516Z,7.60
2017-08-06T08:16:01.764Z,7.30
2017-08-06T08:16:59.028Z,7.70
2017-08-06T08:17:56.252Z,6.70
2017-08-06T08:18:53.509Z,6.90
2017-08-06T08:19:50.753Z,7.30
2017-08-06T08:20:48.053Z,6.80
2017-08-06T08:21:45.682Z,7.00
2017-08-06T08:22:44.282Z,7.90
2017-08-06T08:23:41.585Z,7.90
2017-08-06T08:24:38.836Z,6.60
2017-08-06T08:25:36.132Z,7.10
2017-08-06T08:26:33.445Z,5.10
2017-08-06T08:27:30.676Z,5.60
2017-08-06T08:28:27.928Z,5.60
2017-08-06T08:29:25.164Z,5.40
2017-08-06T08:30:22.417Z,5.20
2017-08-06T08:31:19.676Z,5.40
2017-08-06T08:32:16.930Z,4.40
2017-08-06T08:33:14.181Z,5.80
2017-08-06T08:34:11.781Z,4.70
2017-08-06T08:35:09.033Z,5.10
2017-08-06T08:36:06.312Z,5.20
2017-08-06T08:37:03.536Z,4.60
2017-08-06T08:38:00.788Z,3.90
2017-08-06T08:38:58.077Z,4.80
2017-08-06T08:39:55.371Z,4.80
2017-08-06T08:40:52.608Z,4.40
2017-08-06T08:41:49.946Z,4.50
2017-08-06T08:42:47.185Z,5.20
2017-08-06T08:43:44.466Z,4.50
2017-08-06T08:44:41.864Z,4.40
2017-08-06T08:45:39.181Z,4.40
2017-08-06T08:46:36.501Z,4.20
2017-08-06T08:47:33.820Z,3.60
2017-08-06T08:48:31.207Z,4.60
2017-08-06T08:49:28.667Z,4.40
2017-08-06T08:50:25.924Z,4.80
2017-08-06T08:51:23.252Z,4.60
2017-08-06T08:52:20.505Z,4.30
2017-08-06T08:53:17.788Z,3.90
2017-08-06T08:54:14.996Z,4.10
2017-08-06T08:55:12.264Z,3.90
2017-08-06T08:56:09.500Z,4.10
2017-08-06T08:57:06.805Z,5.50
2017-08-06T08:58:04.069Z,4.40
2017-08-06T08:59:01.329Z,4.40
2017-08-06T08:59:58.553Z,4.40
2017-08-06T09:00:55.812Z,4.00
2017-08-06T09:01:53.084Z,4.10
2017-08-06T09:02:50.368Z,4.10
2017-08-06T09:03:47.596Z,4.10
2017-08-06T09:04:44.843Z,4.80
2017-08-06T09:05:42.064Z,4.30
2017-08-06T09:06:39.372Z,4.40
2017-08-06T09:07:36.621Z,3.90
2017-08-06T09:08:33.980Z,4.40
2017-08-06T09:09:31.498Z,4.10
2017-08-06T09:10:29.356Z,3.60
2017-08-06T09:11:26.600Z,3.80
2017-08-06T09:12:23.879Z,4.30
2017-08-06T09:13:21.088Z,4.20
2017-08-06T09:14:18.352Z,3.50
2017-08-06T09:15:15.580Z,3.40
2017-08-06T09:16:12.848Z,3.10
2017-08-06T09:17:10.108Z,3.60
2017-08-06T09:18:07.357Z,3.20
2017-08-06T09:19:04.577Z,2.90
2017-08-06T09:20:01.932Z,2.90
2017-08-06T09:20:59.184Z,2.60
2017-08-06T09:21:56.484Z,2.10
2017-08-06T09:22:53.730Z,2.30
2017-08-06T09:23:51.105Z,2.10
2017-08-06T09:24:48.352Z,2.20
2017-08-06T09:25:45.661Z,2.00
2017-08-06T09:26:42.959Z,2.10
2017-08-06T09:27:40.268Z,2.50
2017-08-06T09:28:37.520Z,2.60
2017-08-06T09:29:34.786Z,2.10
2017-08-06T09:30:32.020Z,2.20
2017-08-06T09:31:29.288Z,2.20
2017-08-06T09:32:26.527Z,2.30
2017-08-06T09:33:23.805Z,1.90
2017-08-06T09:34:21.200Z,2.00
2017-08-06T09:35:18.692Z,1.80
2017-08-06T09:36:16.165Z,2.10
2017-08-06T09:37:13.612Z,2.30
2017-08-06T09:38:10.885Z,2.40
2017-08-06T09:39:08.251Z,2.50
2017-08-06T09:40:05.521Z,1.90
2017-08-06T09:41:02.917Z,2.50
2017-08-06T09:42:00.148Z,2.00
2017-08-06T09:42:57.488Z,2.20
2017-08-06T09:43:54.717Z,1.70
2017-08-06T09:44:51.997Z,2.50
2017-08-06T09:45:49.228Z,2.00
2017-08-06T09:46:46.618Z,2.20
2017-08-06T09:47:43.949Z,2.60
2017-08-06T09:48:41.213Z,1.80
2017-08-06T09:49:38.448Z,2.70
2017-08-06T09:50:35.780Z,2.50
2017-08-06T09:51:33.184Z,2.00
2017-08-06T09:52:30.452Z,2.70
2017-08-06T09:53:27.769Z,2.00
2017-08-06T09:54:25.044Z,9.70
2017-08-06T09:55:22.445Z,12.60
2017-08-06T09:56:19.705Z,4.30
2017-08-06T09:57:16.951Z,6.30
2017-08-06T09:58:14.674Z,2.10
2017-08-06T09:59:12.250Z,2.60
2017-08-06T10:00:09.704Z,2.90
2017-08-06T10:01:07.119Z,2.60
2017-08-06T10:02:04.368Z,2.40
2017-08-06T10:03:01.653Z,2.60
2017-08-06T10:03:58.961Z,3.20
2017-08-06T10:04:56.374Z,3.20
2017-08-06T10:05:53.630Z,2.30
2017-08-06T10:06:50.936Z,2.70
2017-08-06T10:07:48.192Z,2.10
2017-08-06T10:08:45.446Z,2.40
2017-08-06T10:09:42.720Z,2.10
2017-08-06T10:10:40.073Z,2.00
2017-08-06T10:11:37.452Z,2.20
2017-08-06T10:12:34.680Z,2.30
2017-08-06T10:13:32.082Z,2.30
2017-08-06T10:14:29.346Z,2.50
2017-08-06T10:15:26.600Z,1.90
2017-08-06T10:16:23.860Z,2.20
2017-08-06T10:17:21.145Z,2.60
2017-08-06T10:18:18.383Z,3.10
2017-08-06T10:19:15.661Z,2.30
2017-08-06T10:20:13.036Z,1.90
2017-08-06T10:21:10.281Z,2.10
2017-08-06T10:22:07.513Z,1.80
2017-08-06T10:23:04.772Z,2.10
2017-08-06T10:24:02.017Z,1.60
2017-08-06T10:24:59.276Z,2.10
2017-08-06T10:25:56.545Z,1.90
2017-08-06T10:26:53.837Z,2.00
2017-08-06T10:27:51.072Z,1.90
2017-08-06T10:28:48.344Z,2.10
2017-08-06T10:29:45.576Z,2.30
2017-08-06T10:30:42.824Z,2.30
2017-08-06T10:31:40.160Z,2.10
2017-08-06T10:32:37.691Z,1.60
2017-08-06T10:33:34.936Z,9.80
2017-08-06T10:34:32.229Z,10.20
2017-08-06T10:35:29.518Z,8.40
2017-08-06T10:36:26.866Z,5.60
2017-08-06T10:37:24.137Z,2.60
2017-08-06T10:38:21.426Z,2.10
2017-08-06T10:39:18.683Z,2.00
2017-08-06T10:40:16.052Z,1.80
2017-08-06T10:41:13.285Z,1.80
2017-08-06T10:42:10.539Z,2.20
2017-08-06T10:43:07.769Z,2.10
2017-08-06T10:44:05.055Z,2.30
2017-08-06T10:45:02.312Z,2.10
2017-08-06T10:45:59.564Z,1.80
2017-08-06T10:46:56.789Z,2.50
2017-08-06T10:47:54.049Z,1.90
2017-08-06T10:48:51.269Z,1.50
2017-08-06T10:49:48.553Z,1.60
2017-08-06T10:50:45.800Z,1.80
2017-08-06T10:51:43.056Z,2.00
2017-08-06T10:52:40.293Z,12.70
2017-08-06T10:53:37.622Z,8.20
2017-08-06T10:54:34.909Z,8.10
2017-08-06T10:55:32.170Z,5.50
2017-08-06T10:56:29.407Z,2.50
2017-08-06T10:57:26.661Z,1.90
2017-08-06T10:58:23.913Z,2.10
2017-08-06T10:59:21.202Z,2.10
2017-08-06T11:00:18.475Z,1.90
2017-08-06T11:01:15.751Z,1.90
2017-08-06T11:02:13.012Z,1.70
2017-08-06T11:03:10.265Z,2.10
2017-08-06T11:04:07.500Z,1.50
2017-08-06T11:05:04.785Z,1.90
2017-08-06T11:06:02.036Z,1.60
2017-08-06T11:06:59.548Z,1.50
2017-08-06T11:07:57.156Z,1.80
2017-08-06T11:08:54.406Z,1.40
2017-08-06T11:09:51.645Z,1.80
2017-08-06T11:10:48.896Z,1.70
2017-08-06T11:11:46.140Z,1.70
2017-08-06T11:12:43.408Z,2.00
2017-08-06T11:13:40.668Z,2.10
2017-08-06T11:14:37.996Z,2.10
2017-08-06T11:15:35.260Z,2.80
2017-08-06T11:16:32.533Z,2.20
2017-08-06T11:17:29.760Z,1.90
2017-08-06T11:18:27.404Z,1.50
2017-08-06T11:19:24.651Z,2.30
2017-08-06T11:20:22.880Z,2.00
2017-08-06T11:21:20.104Z,2.00
2017-08-06T11:22:17.357Z,2.00
2017-08-06T11:23:14.576Z,1.40
2017-08-06T11:24:11.844Z,1.60
2017-08-06T11:25:09.109Z,2.00
2017-08-06T11:26:06.445Z,1.50
2017-08-06T11:27:03.757Z,2.00
2017-08-06T11:28:01.113Z,3.30
2017-08-06T11:28:58.371Z,1.70
2017-08-06T11:29:55.645Z,1.40
2017-08-06T11:30:52.934Z,1.80
2017-08-06T11:31:50.201Z,1.80
2017-08-06T11:32:47.490Z,2.10
2017-08-06T11:33:44.760Z,1.40
2017-08-06T11:34:41.994Z,1.40
2017-08-06T11:35:39.288Z,1.30
2017-08-06T11:36:36.533Z,1.70
2017-08-06T11:37:33.813Z,1.30
2017-08-06T11:38:31.048Z,1.80
2017-08-06T11:39:28.328Z,1.80
2017-08-06T11:40:25.660Z,1.70
2017-08-06T11:41:22.961Z,2.10
2017-08-06T11:42:20.233Z,2.90
2017-08-06T11:43:17.488Z,2.40
2017-08-06T11:44:14.752Z,2.20
2017-08-06T11:45:12.029Z,2.10
2017-08-06T11:46:09.289Z,1.70
2017-08-06T11:47:06.581Z,2.00
2017-08-06T11:48:03.812Z,1.90
2017-08-06T11:49:01.097Z,1.40
2017-08-06T11:49:58.321Z,1.50
2017-08-06T11:50:55.648Z,1.30
2017-08-06T11:51:52.889Z,1.40
2017-08-06T11:52:50.190Z,1.50
2017-08-06T11:53:47.441Z,1.40
2017-08-06T11:54:44.705Z,1.50
2017-08-06T11:55:42.016Z,1.40
2017-08-06T11:56:39.296Z,1.20
2017-08-06T11:57:36.569Z,1.20
2017-08-06T11:58:33.832Z,1.60
2017-08-06T11:59:31.084Z,2.30
2017-08-06T12:00:28.348Z,1.30
2017-08-06T12:01:25.616Z,1.70
2017-08-06T12:02:22.982Z,1.50
2017-08-06T12:03:20.231Z,1.30
2017-08-06T12:04:17.508Z,1.70
2017-08-06T12:05:14.737Z,1.30
2017-08-06T12:06:12.012Z,1.40
2017-08-06T12:07:09.266Z,1.50
2017-08-06T12:08:06.520Z,1.50
2017-08-06T12:09:03.748Z,1.70
2017-08-06T12:10:01.024Z,1.40
2017-08-06T12:10:58.297Z,1.50
2017-08-06T12:11:55.602Z,1.20
2017-08-06T12:12:53.178Z,1.30
2017-08-06T12:13:50.585Z,1.40
2017-08-06T12:14:47.863Z,1.70
2017-08-06T12:15:45.384Z,1.60
2017-08-06T12:16:42.714Z,1.20
2017-08-06T12:17:39.994Z,1.70
2017-08-06T12:18:37.225Z,1.40
2017-08-06T12:19:34.656Z,1.30
2017-08-06T12:20:31.953Z,1.30
2017-08-06T12:21:29.237Z,1.40
2017-08-06T12:22:26.498Z,1.50
2017-08-06T12:23:23.972Z,1.20
2017-08-06T12:24:21.213Z,1.40
2017-08-06T12:25:18.581Z,1.20
2017-08-06T12:26:15.980Z,1.40
2017-08-06T12:27:13.412Z,1.30
2017-08-06T12:28:10.669Z,1.20
2017-08-06T12:29:08.022Z,1.20
2017-08-06T12:30:05.308Z,1.30
2017-08-06T12:31:02.769Z,2.90
2017-08-06T12:32:00.028Z,1.50
2017-08-06T12:32:57.389Z,1.30
2017-08-06T12:33:54.625Z,1.00
2017-08-06T12:34:51.902Z,1.50
2017-08-06T12:35:49.196Z,1.20
2017-08-06T12:36:46.627Z,1.30
2017-08-06T12:37:43.921Z,1.30
2017-08-06T12:38:41.177Z,1.20
2017-08-06T12:39:38.417Z,1.20
2017-08-06T12:40:36.176Z,1.30
2017-08-06T12:41:33.470Z,1.30
2017-08-06T12:42:30.772Z,1.20